Pagrindinis puslapis
METAR-TAF:

METAR-TAF

Oro uostai :

Šarlio de Golio oro uostas

Paryžius-Charles de Gaulle, Prancūzija

platuma: 49-01N, ilguma: 002-32E, Aukštis: 118 m

Dabartinis oras

Ataskaita buvo paskelbta 19 minutes, ne 22:00 UTC
Vėjas 10 kt iš Rytų
Temperatūra 16°C
Drėgmė 34%
Slėgis 1018 hPa
Matomumas 10 km arba daugiau
nėra debesų žemiau 1500 m ir nėra kamuolinių lietaus debesų

METAR: LFPG 202200Z 08010KT CAVOK 16/M00 Q1018 NOSIG

Laikas: 00:19 (22:19 UTC)

Prognozė

Ataskaita buvo paskelbta 5 valandos ir 19 minutes, ne 17:00 UTC
Prognozė galioja nuo 20 metu 18 UTC su 21 metu 24 UTC
Vėjas 12 kt iš Rytų
Matomumas 10 km arba daugiau
nėra debesų žemiau 1500 m ir nėra kamuolinių lietaus debesų

TAF: LFPG 201700Z 2018/2124 09012KT CAVOK TX27/2115Z TN12/2106Z

Orai ataskaitas ir orų prognozės (METAR, TAF).

turimą stotys yra geltonos ir raudonos taškus žemėlapyje.

Perkelti pele per norėdami pamatyti stoties vardą.

Tada spustelėkite, norėdami matyti oro stebėjimo ir prognozės.

Norėdami pakeisti žemėlapį: spustelėkite ant žalios mygtukų su juodo kryžiaus žemyn,; žalią mygtuką su brūkšneliu, jei norite nutolinti; arba žalių rodyklių gretimoms žemėlapius.


METAR-TAF: